TimeMDT,TemperatureF,Dew PointF,Humidity,Sea Level PressureIn,VisibilityMPH,Wind Direction,Wind SpeedMPH,Gust SpeedMPH,PrecipitationIn,Events,Conditions,WindDirDegrees,DateUTC
12:53 AM,44.1,39.9,85,29.96,10.0,Calm,Calm,-,N/A,,Mostly Cloudy,0,2013-05-07 06:53:00
1:53 AM,43.0,39.0,86,29.97,10.0,Calm,Calm,-,N/A,,Overcast,0,2013-05-07 07:53:00
2:53 AM,44.1,39.9,85,29.99,10.0,Calm,Calm,-,N/A,,Overcast,0,2013-05-07 08:53:00
3:53 AM,45.0,41.0,86,29.97,10.0,Calm,Calm,-,N/A,,Overcast,0,2013-05-07 09:53:00
4:05 AM,44.6,41.0,87,30.03,10.0,ENE,3.5,-,N/A,,Overcast,70,2013-05-07 10:05:00
4:42 AM,44.6,39.2,81,30.03,10.0,East,5.8,-,N/A,,Overcast,90,2013-05-07 10:42:00
4:53 AM,44.1,39.9,85,29.97,10.0,East,6.9,-,N/A,,Overcast,100,2013-05-07 10:53:00
5:07 AM,44.6,41.0,87,30.03,10.0,East,4.6,-,N/A,,Overcast,90,2013-05-07 11:07:00
5:17 AM,44.6,41.0,87,30.03,10.0,East,5.8,-,N/A,,Overcast,80,2013-05-07 11:17:00
5:32 AM,44.6,41.0,87,30.03,10.0,ENE,4.6,-,N/A,,Overcast,70,2013-05-07 11:32:00
5:45 AM,44.6,41.0,87,30.02,10.0,NE,8.1,-,N/A,,Overcast,50,2013-05-07 11:45:00
5:53 AM,44.1,41.0,89,29.96,10.0,NE,10.4,-,N/A,,Overcast,50,2013-05-07 11:53:00
6:25 AM,44.6,41.0,87,30.02,8.0,South,3.5,-,N/A,,Overcast,190,2013-05-07 12:25:00
6:33 AM,44.6,41.0,87,30.03,8.0,South,4.6,-,N/A,,Overcast,180,2013-05-07 12:33:00
6:53 AM,44.6,41.0,87,30.03,7.0,Calm,Calm,-,N/A,,Overcast,0,2013-05-07 12:53:00
7:14 AM,44.6,42.8,93,30.03,9.0,Calm,Calm,-,N/A,,Scattered Clouds,0,2013-05-07 13:14:00
7:53 AM,46.9,41.0,80,30.00,10.0,Calm,Calm,-,N/A,,Clear,0,2013-05-07 13:53:00
8:53 AM,48.9,39.9,71,29.99,10.0,East,3.5,-,N/A,,Partly Cloudy,100,2013-05-07 14:53:00
9:53 AM,50.0,37.9,63,29.99,10.0,Calm,Calm,-,N/A,,Overcast,0,2013-05-07 15:53:00
10:44 AM,46.4,39.2,76,30.05,9.0,WSW,11.5,-,0.01,Rain,Light Rain,250,2013-05-07 16:44:00
10:53 AM,44.1,39.0,82,30.04,6.0,WSW,10.4,-,0.01,Rain,Light Rain,240,2013-05-07 16:53:00
11:03 AM,44.6,39.2,81,30.06,5.0,SW,11.5,-,0.02,Rain,Rain,220,2013-05-07 17:03:00
11:23 AM,44.6,39.2,81,30.05,1.8,WNW,4.6,-,0.07,Rain,Rain,300,2013-05-07 17:23:00
11:32 AM,44.6,42.8,93,30.06,3.0,NNW,5.8,-,0.08,Rain,Light Rain,330,2013-05-07 17:32:00
11:48 AM,46.4,42.8,87,30.05,10.0,North,10.4,-,0.08,,Overcast,360,2013-05-07 17:48:00
11:53 AM,48.0,43.0,83,30.03,10.0,North,12.7,-,0.08,,Overcast,360,2013-05-07 17:53:00
12:53 PM,52.0,39.9,63,29.97,10.0,Calm,Calm,-,N/A,,Scattered Clouds,0,2013-05-07 18:53:00
1:53 PM,57.0,39.0,51,29.94,10.0,SW,5.8,-,N/A,,Mostly Cloudy,220,2013-05-07 19:53:00
2:53 PM,57.9,37.0,46,29.92,10.0,SE,6.9,-,N/A,,Clear,140,2013-05-07 20:53:00
3:53 PM,57.9,35.1,42,29.89,10.0,ESE,10.4,17.3,N/A,,Clear,120,2013-05-07 21:53:00
4:53 PM,52.0,39.0,61,29.95,10.0,SSE,21.9,25.3,N/A,,Overcast,150,2013-05-07 22:53:00
5:53 PM,53.1,36.0,52,29.95,10.0,Variable,3.5,-,N/A,,Overcast,0,2013-05-07 23:53:00
6:53 PM,51.1,37.0,59,29.96,10.0,West,15.0,-,N/A,,Overcast,270,2013-05-08 00:53:00
7:53 PM,48.9,37.9,66,29.97,10.0,WNW,5.8,-,N/A,,Overcast,290,2013-05-08 01:53:00
8:53 PM,48.0,39.0,71,29.96,10.0,NNE,5.8,-,N/A,,Mostly Cloudy,30,2013-05-08 02:53:00
9:53 PM,48.0,37.9,68,29.96,10.0,ENE,3.5,-,N/A,,Clear,60,2013-05-08 03:53:00
10:53 PM,45.0,37.9,76,29.99,10.0,NW,3.5,-,N/A,,Clear,320,2013-05-08 04:53:00
11:53 PM,45.0,37.9,76,29.99,10.0,SW,3.5,-,N/A,,Overcast,230,2013-05-08 05:53:00